createdAt,value
2022-11-19T00:02:02.162Z,-1.17
2022-11-19T00:04:30.293Z,-1.19
2022-11-19T00:06:59.071Z,-1.22
2022-11-19T00:09:27.165Z,-1.26
2022-11-19T00:12:13.421Z,-1.25
2022-11-19T00:14:41.716Z,-1.27
2022-11-19T00:17:09.702Z,-1.28
2022-11-19T00:19:37.750Z,-1.37
2022-11-19T00:22:05.204Z,-1.37
2022-11-19T00:24:32.589Z,-1.27
2022-11-19T00:26:59.817Z,-1.19
2022-11-19T00:29:27.815Z,-1.11
2022-11-19T00:31:55.786Z,-1.07
2022-11-19T00:34:22.973Z,-1.06
2022-11-19T00:36:51.480Z,-1.06
2022-11-19T00:39:19.621Z,-1.01
2022-11-19T00:41:47.751Z,-0.95
2022-11-19T00:44:15.670Z,-0.93
2022-11-19T00:46:43.586Z,-1.05
2022-11-19T00:49:11.544Z,-1.14
2022-11-19T00:51:39.633Z,-1.13
2022-11-19T00:54:07.612Z,-1.05
2022-11-19T00:56:35.591Z,-1.02
2022-11-19T00:59:04.047Z,-0.97
2022-11-19T05:00:45.937Z,-0.29
2022-11-19T05:03:14.010Z,-0.31
2022-11-19T05:05:41.978Z,-0.35
2022-11-19T05:08:10.575Z,-0.36
2022-11-19T05:10:38.480Z,-0.37
2022-11-19T05:13:06.181Z,-0.44
2022-11-19T05:15:33.957Z,-0.43
2022-11-19T05:18:01.726Z,-0.35
2022-11-19T05:20:29.841Z,-0.28
2022-11-19T05:22:57.570Z,-0.23
2022-11-19T05:25:25.438Z,-0.19
2022-11-19T05:27:53.462Z,-0.21
2022-11-19T05:30:21.371Z,-0.23
2022-11-19T05:32:49.375Z,-0.20
2022-11-19T05:35:17.143Z,-0.17
2022-11-19T05:37:45.052Z,-0.16
2022-11-19T05:40:13.338Z,-0.21
2022-11-19T05:42:41.229Z,-0.25
2022-11-19T05:45:10.091Z,-0.24
2022-11-19T05:47:38.273Z,-0.23
2022-11-19T05:50:06.455Z,-0.29
2022-11-19T05:52:34.895Z,-0.32
2022-11-19T05:55:03.059Z,-0.32
2022-11-19T05:57:31.184Z,-0.34
2022-11-19T05:59:59.138Z,-0.42
2022-11-19T06:02:27.180Z,-0.44
2022-11-19T06:04:55.990Z,-0.39
2022-11-19T06:07:23.893Z,-0.36
2022-11-19T06:09:51.669Z,-0.32
2022-11-19T06:12:18.857Z,-0.35
2022-11-19T06:14:46.261Z,-0.40
2022-11-19T06:17:13.842Z,-0.38
2022-11-19T06:19:41.033Z,-0.33
2022-11-19T06:22:09.822Z,-0.31
2022-11-19T06:24:37.797Z,-0.36
2022-11-19T06:27:05.784Z,-0.32
2022-11-19T06:29:33.953Z,-0.32
2022-11-19T06:32:01.814Z,-0.33
2022-11-19T06:34:29.563Z,-0.37
2022-11-19T06:36:58.708Z,-0.40
2022-11-19T06:39:26.588Z,-0.39
2022-11-19T06:41:54.665Z,-0.44
2022-11-19T06:44:22.700Z,-0.44
2022-11-19T06:46:50.523Z,-0.45
2022-11-19T06:49:20.267Z,-0.42
2022-11-19T06:51:48.806Z,-0.36
2022-11-19T06:54:16.682Z,-0.33
2022-11-19T06:56:43.950Z,-0.33
2022-11-19T06:59:11.078Z,-0.36
2022-11-19T07:01:39.116Z,-0.39
2022-11-19T07:04:09.964Z,-0.34
2022-11-19T07:06:38.306Z,-0.30
2022-11-19T07:09:06.346Z,-0.36
2022-11-19T07:11:36.186Z,-0.39
2022-11-19T07:14:04.259Z,-0.35
2022-11-19T07:16:36.726Z,-0.26
2022-11-19T07:19:07.272Z,-0.16
2022-11-19T07:21:35.952Z,-0.18
2022-11-19T07:24:06.216Z,-0.16
2022-11-19T07:26:35.489Z,-0.15
2022-11-19T07:29:06.189Z,-0.14
2022-11-19T07:31:34.956Z,-0.10
2022-11-19T07:34:02.482Z,-0.08
2022-11-19T07:36:29.577Z,-0.03
2022-11-19T07:38:58.483Z,-0.03
2022-11-19T07:41:45.428Z,0.03
2022-11-19T07:44:13.539Z,0.09
2022-11-19T07:46:42.268Z,0.13
2022-11-19T07:49:09.762Z,0.13
2022-11-19T07:51:37.597Z,0.18
2022-11-19T07:54:05.666Z,0.31
2022-11-19T07:56:33.761Z,0.33
2022-11-19T07:59:02.873Z,0.35
2022-11-19T08:01:30.862Z,0.38
2022-11-19T08:03:58.874Z,0.47
2022-11-19T08:06:28.709Z,0.47
2022-11-19T08:08:57.285Z,0.47
2022-11-19T08:11:25.686Z,0.51
2022-11-19T08:13:56.314Z,0.58
2022-11-19T08:16:43.110Z,0.59
2022-11-19T08:19:13.610Z,0.70
2022-11-19T08:21:44.081Z,0.78
2022-11-19T08:24:14.176Z,0.81
2022-11-19T08:26:42.777Z,0.78
2022-11-19T08:29:15.927Z,0.78
2022-11-19T08:31:46.781Z,0.80
2022-11-19T08:34:16.740Z,0.82
2022-11-19T08:36:45.048Z,0.85
2022-11-19T08:39:12.327Z,0.88
2022-11-19T08:41:58.109Z,0.84
2022-11-19T08:44:26.568Z,0.83
2022-11-19T08:46:53.928Z,0.83
2022-11-19T08:49:21.723Z,0.81
2022-11-19T08:51:48.882Z,0.81
2022-11-19T08:54:19.893Z,0.87
2022-11-19T08:56:47.493Z,0.91
2022-11-19T08:59:15.000Z,0.98
2022-11-19T09:01:42.342Z,1.04
2022-11-19T09:04:10.412Z,1.12
2022-11-19T09:06:37.737Z,1.26
2022-11-19T09:09:05.450Z,1.34
2022-11-19T09:11:34.084Z,1.43
2022-11-19T09:14:03.760Z,1.52
2022-11-19T09:16:31.100Z,1.59
2022-11-19T09:18:59.004Z,1.68
2022-11-19T09:21:28.831Z,1.76
2022-11-19T09:23:56.075Z,1.74
2022-11-19T09:26:23.646Z,1.76
2022-11-19T09:28:51.422Z,1.75
2022-11-19T09:31:20.624Z,1.69
2022-11-19T09:33:50.968Z,1.73
2022-11-19T09:36:20.850Z,1.86
2022-11-19T09:38:49.426Z,1.93
2022-11-19T09:41:31.246Z,1.92
2022-11-19T09:44:17.737Z,2.03
2022-11-19T09:47:24.187Z,2.14
2022-11-19T09:50:19.581Z,2.14
2022-11-19T09:52:58.611Z,2.13
2022-11-19T09:55:47.744Z,2.11
2022-11-19T09:58:43.101Z,2.04
2022-11-19T10:01:17.184Z,2.00
2022-11-19T10:03:55.159Z,1.85
2022-11-19T10:06:30.359Z,1.79
2022-11-19T10:09:33.095Z,1.81
2022-11-19T10:12:15.443Z,1.88
2022-11-19T10:15:05.005Z,1.92
2022-11-19T10:18:29.918Z,1.91
2022-11-19T10:21:06.151Z,1.94
2022-11-19T10:23:36.631Z,2.02
2022-11-19T10:26:11.822Z,2.09
2022-11-19T10:28:44.763Z,2.10
2022-11-19T10:31:49.069Z,2.06
2022-11-19T10:34:33.060Z,2.00
2022-11-19T10:37:16.139Z,1.94
2022-11-19T10:40:04.111Z,1.92
2022-11-19T10:42:39.694Z,1.90
2022-11-19T10:45:19.561Z,1.90
2022-11-19T10:48:13.622Z,1.91
2022-11-19T10:50:43.042Z,1.97
2022-11-19T10:53:32.727Z,1.97
2022-11-19T10:56:07.716Z,1.99
2022-11-19T10:58:41.536Z,2.06
2022-11-19T11:01:38.115Z,2.18
2022-11-19T11:04:24.290Z,2.22
2022-11-19T11:07:04.374Z,2.19
2022-11-19T11:09:40.950Z,2.23
2022-11-19T11:12:41.262Z,2.22
2022-11-19T11:15:27.635Z,2.20
2022-11-19T11:18:11.723Z,2.17
2022-11-19T11:20:44.823Z,2.13
2022-11-19T11:23:18.452Z,2.12
2022-11-19T11:26:13.849Z,2.17
2022-11-19T11:29:24.255Z,2.17
2022-11-19T11:31:52.155Z,2.07
2022-11-19T11:34:43.445Z,2.02
2022-11-19T11:37:13.739Z,1.92
2022-11-19T11:39:44.922Z,1.88
2022-11-19T11:42:19.657Z,1.83
2022-11-19T11:45:00.373Z,1.81
2022-11-19T11:47:37.445Z,1.84
2022-11-19T11:50:05.561Z,1.94
2022-11-19T11:52:54.505Z,2.01
2022-11-19T11:55:26.451Z,2.05
2022-11-19T11:57:56.511Z,2.06
2022-11-19T12:00:45.215Z,2.09
2022-11-19T12:03:15.082Z,2.11
2022-11-19T12:05:51.257Z,2.15
2022-11-19T12:08:35.630Z,2.22
2022-11-19T12:11:12.131Z,2.26
2022-11-19T12:14:06.601Z,2.31
2022-11-19T12:16:57.525Z,2.31
2022-11-19T12:19:53.330Z,2.29
2022-11-19T12:22:40.969Z,2.28
2022-11-19T12:25:12.832Z,2.27
2022-11-19T12:28:05.685Z,2.28
2022-11-19T12:31:07.810Z,2.27
2022-11-19T12:34:14.351Z,2.19
2022-11-19T12:37:33.042Z,2.16
2022-11-19T12:40:39.865Z,2.17
2022-11-19T12:43:37.471Z,2.19
2022-11-19T12:46:25.135Z,2.09
2022-11-19T12:49:12.870Z,2.05
2022-11-19T12:52:21.967Z,2.03
2022-11-19T12:55:11.583Z,2.01
2022-11-19T12:58:13.118Z,2.03
2022-11-19T13:00:57.394Z,1.98
2022-11-19T13:03:48.394Z,1.91
2022-11-19T13:06:28.636Z,1.89
2022-11-19T13:09:08.951Z,1.90
2022-11-19T13:11:51.922Z,1.91
2022-11-19T13:14:44.511Z,1.93
2022-11-19T13:17:30.735Z,1.92
2022-11-19T13:20:10.235Z,2.00
2022-11-19T13:22:50.717Z,1.92
2022-11-19T13:26:10.660Z,1.89
2022-11-19T13:28:50.747Z,1.80
2022-11-19T13:31:46.745Z,1.81
2022-11-19T13:34:17.662Z,1.79
2022-11-19T13:37:15.324Z,1.79
2022-11-19T13:39:59.178Z,1.72
2022-11-19T13:43:04.228Z,1.66
2022-11-19T13:45:44.985Z,1.66
2022-11-19T13:48:35.949Z,1.67
2022-11-19T13:51:12.098Z,1.67
2022-11-19T13:53:48.279Z,1.64
2022-11-19T13:56:18.013Z,1.65
2022-11-19T13:58:51.771Z,1.59
2022-11-19T14:01:22.830Z,1.50
2022-11-19T14:04:09.689Z,1.46
2022-11-19T14:06:41.994Z,1.40
2022-11-19T14:09:37.894Z,1.36
2022-11-19T14:12:36.490Z,1.41
2022-11-19T14:15:56.484Z,1.38
2022-11-19T14:18:59.332Z,1.36
2022-11-19T14:21:46.827Z,1.39
2022-11-19T14:24:47.146Z,1.39
2022-11-19T14:27:24.732Z,1.39
2022-11-19T14:30:00.283Z,1.38
2022-11-19T14:36:09.984Z,1.42
2022-11-19T14:38:42.412Z,1.35
2022-11-19T14:41:35.058Z,1.33
2022-11-19T14:44:11.016Z,1.31
2022-11-19T14:46:45.832Z,1.24
2022-11-19T14:49:41.507Z,1.12
2022-11-19T14:52:29.066Z,1.06
2022-11-19T14:55:21.537Z,1.03
2022-11-19T14:58:21.464Z,0.98
2022-11-19T15:01:06.696Z,0.93
2022-11-19T15:03:39.111Z,0.80
2022-11-19T15:06:19.096Z,0.76
2022-11-19T15:08:59.486Z,0.76
2022-11-19T15:12:00.955Z,0.74
2022-11-19T15:15:05.914Z,0.71
2022-11-19T15:17:40.786Z,0.63
2022-11-19T15:20:39.993Z,0.59
2022-11-19T15:23:33.434Z,0.57
2022-11-19T15:26:21.115Z,0.55
2022-11-19T15:29:13.883Z,0.57
2022-11-19T15:31:50.050Z,0.49
2022-11-19T15:34:56.068Z,0.53
2022-11-19T15:37:39.962Z,0.51
2022-11-19T15:40:12.248Z,0.48
2022-11-19T15:46:09.907Z,0.53
2022-11-19T15:49:22.385Z,0.44
2022-11-19T15:52:17.702Z,0.43
2022-11-19T15:54:46.529Z,0.43
2022-11-19T15:57:26.961Z,0.46
2022-11-19T16:00:01.954Z,0.44
2022-11-19T16:02:42.891Z,0.35
2022-11-19T16:05:22.512Z,0.34
2022-11-19T16:07:52.017Z,0.37
2022-11-19T16:10:30.925Z,0.33
2022-11-19T16:13:21.602Z,0.32
2022-11-19T16:16:10.443Z,0.28
2022-11-19T16:18:54.607Z,0.23
2022-11-19T16:21:36.701Z,0.17
2022-11-19T16:24:31.472Z,0.16
2022-11-19T16:27:01.772Z,0.19
2022-11-19T16:29:33.976Z,0.21
2022-11-19T16:32:03.355Z,0.16
2022-11-19T16:38:29.852Z,0.11
2022-11-19T16:41:16.724Z,0.09
2022-11-19T16:43:48.777Z,0.03
2022-11-19T16:46:20.956Z,0.01
2022-11-19T16:48:49.231Z,0.03
2022-11-19T16:51:37.944Z,0.02
2022-11-19T16:54:09.777Z,-0.02
2022-11-19T16:56:46.070Z,-0.01
2022-11-19T16:59:24.558Z,0.04
2022-11-19T17:02:00.552Z,0.01
2022-11-19T17:04:30.955Z,0.07
2022-11-19T17:06:59.497Z,0.10
2022-11-19T17:09:48.103Z,0.09
2022-11-19T17:12:28.019Z,0.08
2022-11-19T17:14:58.740Z,0.15
2022-11-19T17:17:39.990Z,0.20
2022-11-19T17:20:28.280Z,0.17
2022-11-19T17:22:57.704Z,0.10
2022-11-19T17:25:26.378Z,0.09
2022-11-19T17:27:58.265Z,0.09
2022-11-19T17:30:35.584Z,0.09
2022-11-19T17:33:08.035Z,0.07
2022-11-19T17:35:41.643Z,0.01
2022-11-19T17:38:20.888Z,-0.02
2022-11-19T17:40:51.710Z,-0.01
2022-11-19T17:43:56.268Z,0.02
2022-11-19T17:46:26.767Z,0.02
2022-11-19T17:49:00.157Z,-0.01
2022-11-19T17:51:29.159Z,-0.04
2022-11-19T17:53:58.810Z,-0.07
2022-11-19T17:56:28.905Z,-0.09
2022-11-19T17:59:02.344Z,-0.07
2022-11-19T18:01:31.686Z,-0.07
2022-11-19T18:04:00.507Z,-0.06
2022-11-19T18:06:29.482Z,-0.04
2022-11-19T18:08:57.709Z,-0.12
2022-11-19T18:11:27.224Z,-0.19
2022-11-19T18:13:58.054Z,-0.18
2022-11-19T18:16:28.596Z,-0.10
2022-11-19T18:18:56.989Z,-0.11
2022-11-19T18:21:25.422Z,-0.13
2022-11-19T18:23:54.395Z,-0.11
2022-11-19T18:26:23.724Z,-0.14
2022-11-19T18:28:52.434Z,-0.08
2022-11-19T18:31:26.751Z,-0.08
2022-11-19T18:33:56.799Z,-0.07
2022-11-19T18:36:26.027Z,-0.03
2022-11-19T18:38:56.131Z,0.00
2022-11-19T18:41:24.732Z,0.08
2022-11-19T18:44:12.425Z,0.13
2022-11-19T18:46:41.027Z,0.13
2022-11-19T18:49:09.121Z,0.16
2022-11-19T18:51:38.985Z,0.15
2022-11-19T18:54:08.288Z,0.15
2022-11-19T18:56:36.841Z,0.13
2022-11-19T18:59:05.259Z,0.14
2022-11-19T19:01:36.994Z,0.15
2022-11-19T19:04:09.174Z,0.12
2022-11-19T19:06:44.771Z,0.16
2022-11-19T19:09:21.987Z,0.23
2022-11-19T19:12:14.095Z,0.23
2022-11-19T19:14:44.448Z,0.26
2022-11-19T19:17:16.892Z,0.30
2022-11-19T19:19:45.813Z,0.24
2022-11-19T19:23:22.856Z,0.23
2022-11-19T19:25:51.354Z,0.21
2022-11-19T19:28:20.194Z,0.23
2022-11-19T19:30:57.255Z,0.23
2022-11-19T19:33:26.160Z,0.23
2022-11-19T19:35:54.639Z,0.27
2022-11-19T19:38:22.965Z,0.24
2022-11-19T19:40:50.491Z,0.22
2022-11-19T19:43:18.764Z,0.27
2022-11-19T19:45:46.846Z,0.29
2022-11-19T19:48:18.654Z,0.34
2022-11-19T19:50:52.296Z,0.34
2022-11-19T19:53:22.909Z,0.29
2022-11-19T19:56:11.339Z,0.27
2022-11-19T19:58:39.801Z,0.29
2022-11-19T20:01:09.649Z,0.31
2022-11-19T20:03:38.048Z,0.29
2022-11-19T20:06:07.594Z,0.34
2022-11-19T20:08:39.324Z,0.40
2022-11-19T20:11:09.748Z,0.42
2022-11-19T20:13:38.218Z,0.43
2022-11-19T20:16:18.136Z,0.41
2022-11-19T20:18:48.222Z,0.40
2022-11-19T20:21:20.047Z,0.41
2022-11-19T20:23:48.234Z,0.40
2022-11-19T20:26:18.956Z,0.41
2022-11-19T20:28:48.543Z,0.43
2022-11-19T20:31:21.142Z,0.50
2022-11-19T20:33:55.273Z,0.51
2022-11-19T20:36:24.757Z,0.50
2022-11-19T20:38:53.242Z,0.49
2022-11-19T20:41:41.610Z,0.45
2022-11-19T20:44:21.246Z,0.41
2022-11-19T20:47:05.282Z,0.37
2022-11-19T20:49:35.399Z,0.35
2022-11-19T20:52:03.853Z,0.40
2022-11-19T20:54:31.755Z,0.44
2022-11-19T20:57:00.205Z,0.50
2022-11-19T20:59:28.731Z,0.49
2022-11-19T21:01:57.249Z,0.47
2022-11-19T21:04:26.899Z,0.39
2022-11-19T21:06:55.181Z,0.38
2022-11-19T21:09:23.008Z,0.38
2022-11-19T21:11:50.814Z,0.37
2022-11-19T21:14:18.270Z,0.35
2022-11-19T21:16:46.151Z,0.36
2022-11-19T21:19:14.875Z,0.39
2022-11-19T21:21:43.285Z,0.44
2022-11-19T21:24:11.489Z,0.45
2022-11-19T21:26:39.235Z,0.40
2022-11-19T21:29:06.482Z,0.42
2022-11-19T21:31:39.149Z,0.45
2022-11-19T21:34:08.160Z,0.46
2022-11-19T21:36:36.627Z,0.47
2022-11-19T21:39:05.590Z,0.43
2022-11-19T21:41:33.590Z,0.36
2022-11-19T21:44:02.707Z,0.32
2022-11-19T21:46:31.692Z,0.30
2022-11-19T21:49:00.114Z,0.30
2022-11-19T21:51:28.369Z,0.34
2022-11-19T21:53:58.054Z,0.38
2022-11-19T21:56:28.137Z,0.39
2022-11-19T21:58:56.281Z,0.45
2022-11-19T22:01:25.354Z,0.51
2022-11-19T22:03:53.212Z,0.52
2022-11-19T22:06:21.694Z,0.55
2022-11-19T22:08:50.477Z,0.60
2022-11-19T22:11:31.379Z,0.64
2022-11-19T22:14:05.482Z,0.63
2022-11-19T22:16:35.388Z,0.63
2022-11-19T22:19:03.795Z,0.62
2022-11-19T22:21:31.415Z,0.64
2022-11-19T22:26:44.465Z,0.60
2022-11-19T22:29:11.906Z,0.60
2022-11-19T22:31:40.076Z,0.59
2022-11-19T22:34:07.746Z,0.55
2022-11-19T22:36:35.192Z,0.58
2022-11-19T22:39:03.182Z,0.63
2022-11-19T22:41:31.548Z,0.65
2022-11-19T22:43:59.978Z,0.68
2022-11-19T22:46:28.195Z,0.65
2022-11-19T22:48:56.100Z,0.62
2022-11-19T22:51:26.155Z,0.59
2022-11-19T22:53:55.398Z,0.58
2022-11-19T22:56:25.449Z,0.63
2022-11-19T22:58:53.800Z,0.69
2022-11-19T23:01:27.508Z,0.71
2022-11-19T23:03:57.122Z,0.65
2022-11-19T23:06:25.463Z,0.64
2022-11-19T23:08:53.333Z,0.67
2022-11-19T23:11:42.197Z,0.60
2022-11-19T23:14:13.164Z,0.56
2022-11-19T23:16:41.478Z,0.53
2022-11-19T23:19:10.406Z,0.51
2022-11-19T23:21:38.949Z,0.54
2022-11-19T23:24:07.255Z,0.50
2022-11-19T23:26:38.414Z,0.47
2022-11-19T23:29:06.999Z,0.44
2022-11-19T23:31:37.776Z,0.42
2022-11-19T23:34:05.276Z,0.44
2022-11-19T23:36:36.502Z,0.46
2022-11-19T23:39:05.703Z,0.44
2022-11-19T23:41:34.771Z,0.44
2022-11-19T23:44:02.797Z,0.45
2022-11-19T23:46:32.983Z,0.49
2022-11-19T23:49:01.552Z,0.54
2022-11-19T23:51:32.909Z,0.52
2022-11-19T23:54:01.142Z,0.52
2022-11-19T23:56:31.767Z,0.53
2022-11-19T23:59:02.187Z,0.56
